York, NE

11:37 PM CST on December 09, 2019 (GMT -0600)
York Municipal

Weather History for KJYR - November, 2019

Change the Weather History Date:

Saturday, November 16, 2019

  Actual Average Record
Temperature  
Mean Temperature 47 °F -  
Max Temperature 59 °F 51 °F 77 °F (2016)
Min Temperature 35 °F 26 °F -2 °F (2014)
Degree Days  
Heating Degree Days 18    
Moisture  
Dew Point 31 °F    
Average Humidity 59    
Maximum Humidity 81    
Minimum Humidity 36    
Precipitation  
Precipitation 0.00 in - - ()
Sea Level Pressure  
Sea Level Pressure 30.00 in    
Wind  
Wind Speed 13 mph (SSW)    
Max Wind Speed 20 mph    
Max Gust Speed 25 mph    
Visibility 10 miles    
Events      
Averages and records for this station are not official NWS values.
T = Trace of Precipitation, MM = Missing Value Source: NWS Daily Summary

Daily Weather History Graph

Daily Weather History Graph

Search for Another Location

Airport or City:

Astronomy

Nov. 16, 2019 Rise Set
Actual Time 7:18 AM CST 5:11 PM CST
Civil Twilight 6:49 AM CST 5:40 PM CST
Nautical Twilight 6:15 AM CST 6:14 PM CST
Astronomical Twilight 5:43 AM CST 6:46 PM CST
Moon 8:44 PM CST (11/16) 11:14 AM CST (11/16)
Length of Visible Light 10h 51m
Length of Day
9h 52m
Waning Gibbous, 82% of the Moon is Illuminated
Nov 16
Waning Gibbous
Nov 19
Last Quarter
Nov 26
New
Dec 4
First Quarter
Dec 11
Full

Hourly Weather History & Observations

Time (CST) Temp. Windchill Dew Point Humidity Pressure Visibility Wind Dir Wind Speed Gust Speed Precip Events Conditions
12:15 AM 39.2 °F 31.6 °F 28.4 °F 65% 30.12 in 10.0 mi SSE 12.7 mph - N/A   Clear
12:30 AM 39.2 °F 31.6 °F 28.4 °F 65% 30.11 in 10.0 mi SSE 12.7 mph - N/A   Clear
12:55 AM 39.2 °F 31.2 °F 28.4 °F 65% 30.10 in 10.0 mi SSE 13.8 mph - N/A   Clear
1:15 AM 39.2 °F 31.2 °F 28.4 °F 65% 30.10 in 10.0 mi SSE 13.8 mph - N/A   Clear
1:35 AM 39.2 °F 31.2 °F 28.4 °F 65% 30.09 in 10.0 mi SSE 13.8 mph - N/A   Clear
1:55 AM 37.4 °F 29.3 °F 28.4 °F 70% 30.09 in 10.0 mi SSE 12.7 mph - N/A   Clear
2:35 AM 37.4 °F 28.5 °F 28.4 °F 70% 30.08 in 10.0 mi SSE 15.0 mph - N/A   Clear
2:55 AM 37.4 °F 28.9 °F 28.4 °F 70% 30.08 in 10.0 mi SSE 13.8 mph - N/A   Clear
3:15 AM 37.4 °F 29.3 °F 28.4 °F 70% 30.08 in 10.0 mi SSE 12.7 mph - N/A   Clear
3:35 AM 37.4 °F 28.9 °F 28.4 °F 70% 30.07 in 10.0 mi SSE 13.8 mph - N/A   Clear
4:15 AM 37.4 °F 29.3 °F 28.4 °F 70% 30.07 in 10.0 mi SSE 12.7 mph - N/A   Clear
4:35 AM 37.4 °F 29.8 °F 28.4 °F 70% 30.06 in 10.0 mi SSE 11.5 mph - N/A   Clear
4:55 AM 37.4 °F 29.8 °F 28.4 °F 70% 30.06 in 10.0 mi SSE 11.5 mph - N/A   Clear
5:15 AM 37.4 °F 29.8 °F 28.4 °F 70% 30.06 in 10.0 mi SSE 11.5 mph - N/A   Clear
5:35 AM 35.6 °F 27.5 °F 28.4 °F 75% 30.07 in 10.0 mi South 11.5 mph - N/A   Clear
5:55 AM 35.6 °F 26.6 °F 28.4 °F 75% 30.06 in 10.0 mi SSE 13.8 mph - N/A   Clear
6:15 AM 35.6 °F 27.1 °F 28.4 °F 75% 30.05 in 10.0 mi SSE 12.7 mph - N/A   Clear
6:35 AM 35.6 °F 26.2 °F 28.4 °F 75% 30.04 in 10.0 mi SSE 15.0 mph - N/A   Clear
6:55 AM 35.6 °F 26.6 °F 28.4 °F 75% 30.04 in 10.0 mi South 13.8 mph - N/A   Clear
7:15 AM 37.4 °F 28.5 °F 28.4 °F 70% 30.04 in 10.0 mi South 15.0 mph - N/A   Clear
7:35 AM 37.4 °F 29.3 °F 28.4 °F 70% 30.05 in 10.0 mi South 12.7 mph - N/A   Clear
8:15 AM 37.4 °F 28.9 °F 28.4 °F 70% 30.04 in 10.0 mi South 13.8 mph 19.6 mph N/A   Clear
8:35 AM 39.2 °F 30.2 °F 28.4 °F 65% 30.04 in 10.0 mi South 17.3 mph - N/A   Clear
8:55 AM 39.2 °F 30.2 °F 28.4 °F 65% 30.04 in 10.0 mi South 17.3 mph - N/A   Clear
9:15 AM 41.0 °F 32.2 °F 30.2 °F 65% 30.04 in 10.0 mi South 18.4 mph - N/A   Clear
9:35 AM 42.8 °F 34.3 °F 30.2 °F 61% 30.03 in 10.0 mi South 19.6 mph 23.0 mph N/A   Clear
9:55 AM 44.6 °F 36.9 °F 30.2 °F 57% 30.01 in 10.0 mi South 18.4 mph 25.3 mph N/A   Clear
10:15 AM 46.4 °F 39.8 °F 32.0 °F 57% 30.02 in 10.0 mi South 16.1 mph 24.2 mph N/A   Clear
10:35 AM 48.2 °F - 32.0 °F 54% 30.01 in 10.0 mi South 16.1 mph 24.2 mph N/A   Clear
10:55 AM 48.2 °F - 32.0 °F 54% 30.01 in 10.0 mi South 17.3 mph 20.7 mph N/A   Clear
11:15 AM 48.2 °F - 32.0 °F 54% 30.00 in 10.0 mi South 17.3 mph 23.0 mph N/A   Clear
11:35 AM 50.0 °F - 32.0 °F 50% 29.99 in 10.0 mi SSW 15.0 mph 20.7 mph N/A   Clear
11:55 AM 51.8 °F - 32.0 °F 47% 29.98 in 10.0 mi South 17.3 mph 23.0 mph N/A   Clear
12:15 PM 53.6 °F - 32.0 °F 44% 29.97 in 10.0 mi South 16.1 mph 21.9 mph N/A   Clear
12:35 PM 53.6 °F - 32.0 °F 44% 29.96 in 10.0 mi SSW 16.1 mph 20.7 mph N/A   Clear
12:50 PM 53.6 °F - 32.0 °F 44% 29.96 in 10.0 mi SSW 13.8 mph 19.6 mph N/A   Clear
1:15 PM 55.4 °F - 32.0 °F 41% 29.94 in 10.0 mi South 15.0 mph - N/A   Clear
1:55 PM 55.4 °F - 32.0 °F 41% 29.92 in 10.0 mi South 16.1 mph 20.7 mph N/A   Clear
2:15 PM 57.2 °F - 32.0 °F 38% 29.92 in 10.0 mi South 17.3 mph 23.0 mph N/A   Clear
2:35 PM 57.2 °F - 32.0 °F 38% 29.91 in 10.0 mi South 13.8 mph - N/A   Clear
2:55 PM 59.0 °F - 32.0 °F 36% 29.90 in 10.0 mi South 15.0 mph - N/A   Clear
3:15 PM 59.0 °F - 32.0 °F 36% 29.89 in 10.0 mi South 13.8 mph 20.7 mph N/A   Clear
3:35 PM 59.0 °F - 32.0 °F 36% 29.89 in 10.0 mi South 12.7 mph 19.6 mph N/A   Clear
3:55 PM 59.0 °F - 32.0 °F 36% 29.89 in 10.0 mi SSW 12.7 mph - N/A   Clear
4:15 PM 57.2 °F - 32.0 °F 38% 29.90 in 10.0 mi SSW 9.2 mph - N/A   Clear
4:30 PM 55.4 °F - 32.0 °F 41% 29.91 in 10.0 mi SW 9.2 mph - N/A   Clear
4:55 PM 55.4 °F - 32.0 °F 41% 29.91 in 10.0 mi SW 8.1 mph - N/A   Clear
5:15 PM 53.6 °F - 32.0 °F 44% 29.91 in 10.0 mi SW 9.2 mph - N/A   Clear
5:55 PM 50.0 °F - 32.0 °F 50% 29.94 in 10.0 mi WSW 5.8 mph - N/A   Clear
6:30 PM 46.4 °F 42.9 °F 32.0 °F 57% 29.95 in 10.0 mi West 6.9 mph - N/A   Clear
6:55 PM 46.4 °F 42.9 °F 32.0 °F 57% 29.96 in 10.0 mi WNW 6.9 mph - N/A   Partly Cloudy
7:15 PM 46.4 °F 43.5 °F 32.0 °F 57% 29.97 in 10.0 mi WNW 5.8 mph - N/A   Clear
7:35 PM 44.6 °F 43.1 °F 32.0 °F 61% 29.97 in 10.0 mi South 3.5 mph - N/A   Clear
7:55 PM 48.2 °F - 32.0 °F 54% 29.97 in 10.0 mi SSW 3.5 mph - N/A   Clear
8:15 PM 44.6 °F 43.1 °F 32.0 °F 61% 29.97 in 10.0 mi SW 3.5 mph - N/A   Mostly Cloudy
8:35 PM 44.6 °F 43.1 °F 32.0 °F 61% 29.97 in 10.0 mi SW 3.5 mph - N/A   Mostly Cloudy
8:55 PM 44.6 °F 40.7 °F 32.0 °F 61% 29.98 in 10.0 mi NW 6.9 mph - N/A   Scattered Clouds
9:15 PM 48.2 °F - 33.8 °F 58% 29.99 in 10.0 mi NNW 6.9 mph - N/A   Mostly Cloudy
9:35 PM 48.2 °F - 35.6 °F 62% 29.99 in 10.0 mi NNW 8.1 mph - N/A   Overcast
9:55 PM 48.2 °F - 35.6 °F 62% 30.00 in 10.0 mi NNW 6.9 mph - N/A   Mostly Cloudy
10:15 PM 46.4 °F 41.9 °F 35.6 °F 66% 30.01 in 10.0 mi NNW 9.2 mph - N/A   Scattered Clouds
10:30 PM 46.4 °F 42.4 °F 35.6 °F 66% 30.00 in 10.0 mi North 8.1 mph - N/A   Partly Cloudy
10:55 PM 44.6 °F 40.2 °F 35.6 °F 71% 30.01 in 10.0 mi North 8.1 mph - N/A   Clear
11:15 PM 44.6 °F 39.7 °F 35.6 °F 71% 30.01 in 10.0 mi NNW 9.2 mph - N/A   Clear
11:35 PM 41.0 °F 38.0 °F 35.6 °F 81% 30.01 in 10.0 mi NNW 4.6 mph - N/A   Clear
11:55 PM 42.8 °F 37.5 °F 35.6 °F 76% 30.01 in 10.0 mi NNW 9.2 mph - N/A   Clear